Time;durP1;ratioP1;P1;durP2;ratioP2;P2;SDS_P1;SDS_P2;PMS_P1;PMS_P2;Temp;Humidity;BMP_temperature;BMP_pressure;BME280_temperature;BME280_humidity;BME280_pressure;Samples;Min_cycle;Max_cycle;Signal;HPM_P1;HPM_P2
2023/12/09 00:01:10;;;;;;;;;;;12.20;44.10;;;12.43;47.12;100300.59;5054201;28;20315;-31
2023/12/09 00:03:38;;;;;;;;;;;12.20;44.70;;;12.44;46.38;100298.97;5054267;28;19991;-33
2023/12/09 00:06:07;;;;;;;;;;;12.20;44.00;;;12.46;46.44;100295.00;5054313;28;19971;-30
2023/12/09 00:08:35;;;;;;;;;;;12.20;44.00;;;12.43;47.07;100300.59;5046505;28;20380;-31
2023/12/09 00:11:03;;;;;;;;;;;12.20;44.00;;;12.44;46.95;100296.47;5054799;28;19931;-34
2023/12/09 00:13:31;;;;;;;;;;;12.20;44.00;;;12.44;47.03;100298.97;5053909;28;19931;-33
2023/12/09 00:15:59;;;;;;;;;;;12.20;44.00;;;12.45;46.52;100298.25;5054231;28;20399;-32
2023/12/09 00:18:27;;;;;;;;;;;12.20;44.10;;;12.44;47.12;100296.47;5053837;28;19925;-35
2023/12/09 00:20:55;;;;;;;;;;;12.20;44.10;;;12.45;46.64;100293.25;5054050;28;20342;-36
2023/12/09 00:23:25;;;;;;;;;;;12.20;44.00;;;12.44;47.03;100301.50;5054028;28;19932;-33
2023/12/09 00:25:53;;;;;;;;;;;12.20;44.00;;;12.45;46.20;100310.84;5053917;28;20307;-31
2023/12/09 00:28:20;;;;;;;;;;;12.20;44.10;;;12.43;46.73;100294.66;5053907;28;19925;-32
2023/12/09 00:30:48;;;;;;;;;;;12.20;44.00;;;12.43;46.84;100304.72;5053798;28;19931;-31
2023/12/09 00:33:16;;;;;;;;;;;12.20;44.00;;;12.44;46.38;100293.94;5053633;28;19972;-32
2023/12/09 00:35:44;;;;;;;;;;;12.20;44.00;;;12.44;46.53;100296.47;5053664;28;19971;-31
2023/12/09 00:38:12;;;;;;;;;;;12.20;44.10;;;12.43;47.07;100303.09;5053638;28;19924;-31
2023/12/09 00:40:41;;;;;;;;;;;12.20;44.20;;;12.43;46.61;100299.69;5054018;28;20308;-33
2023/12/09 00:43:09;;;;;;;;;;;12.20;44.10;;;12.42;46.39;100312.97;5053873;28;19931;-32
2023/12/09 00:45:37;;;;;;;;;;;12.20;44.20;;;12.41;47.31;100301.13;5045682;28;19932;-31
2023/12/09 00:48:05;;;;;;;;;;;12.20;44.10;;;12.43;46.34;100302.19;5053691;28;20016;-32
2023/12/09 00:50:33;;;;;;;;;;;12.20;44.10;;;12.40;46.70;100302.72;5053865;28;20277;-30
2023/12/09 00:53:01;;;;;;;;;;;12.20;44.10;;;12.42;47.15;100312.97;5052539;28;19925;-30
2023/12/09 00:55:29;;;;;;;;;;;12.20;44.10;;;12.41;46.74;100306.13;5053214;28;19982;-29
2023/12/09 00:57:58;;;;;;;;;;;12.20;44.20;;;12.41;47.44;100308.66;5053165;28;19933;-29
2023/12/09 01:00:26;;;;;;;;;;;12.20;44.20;;;12.40;46.96;100304.34;5052990;28;20023;-32
2023/12/09 01:02:54;;;;;;;;;;;12.20;44.10;;;12.44;46.32;100316.56;5053270;28;20336;-29
2023/12/09 01:05:23;;;;;;;;;;;12.20;44.10;;;12.44;47.05;100316.56;5053092;28;19925;-31
2023/12/09 01:07:50;;;;;;;;;;;12.20;44.10;;;12.45;47.31;100318.38;5053576;28;19925;-31
2023/12/09 01:10:18;;;;;;;;;;;12.20;44.10;;;12.44;46.75;100311.53;5053208;28;19931;-32
2023/12/09 01:12:46;;;;;;;;;;;12.20;44.10;;;12.44;46.95;100312.44;5053313;28;19971;-35
2023/12/09 01:15:16;;;;;;;;;;;12.20;44.00;;;12.46;46.43;100312.59;5053026;28;20311;-32
2023/12/09 01:17:43;;;;;;;;;;;12.20;44.10;;;12.43;46.31;100317.28;5053405;28;20408;-29
2023/12/09 01:20:14;;;;;;;;;;;12.20;44.10;;;11.70;46.53;100185.56;5054065;28;19925;-41
2023/12/09 01:22:41;;;;;;;;;;;12.20;44.10;;;12.49;46.82;100320.50;5047255;28;19925;-31
2023/12/09 01:25:09;;;;;;;;;;;12.20;44.10;;;12.49;46.23;100325.53;5052789;28;19948;-30
2023/12/09 01:27:37;;;;;;;;;;;12.20;44.10;;;12.48;47.12;100323.72;5052705;28;20023;-32
2023/12/09 01:30:06;;;;;;;;;;;12.30;44.10;;;12.47;46.27;100322.84;5052903;28;19925;-32
2023/12/09 01:32:36;;;;;;;;;;;12.20;44.00;;;12.47;46.83;100316.91;5053108;28;19928;-34
2023/12/09 01:35:05;;;;;;;;;;;12.30;44.10;;;12.48;46.89;100313.69;5052657;28;20170;-30
2023/12/09 01:37:33;;;;;;;;;;;12.30;44.00;;;12.47;46.88;100316.91;5052793;28;19932;-31
2023/12/09 01:40:01;;;;;;;;;;;12.30;44.10;;;12.48;47.18;100318.72;5053155;28;19925;-32
2023/12/09 01:42:29;;;;;;;;;;;12.30;44.10;;;12.50;46.76;100324.81;5053491;28;20454;-34
2023/12/09 01:44:57;;;;;;;;;;;12.30;44.00;;;12.47;46.39;100326.97;5052410;28;19925;-32
2023/12/09 01:47:25;;;;;;;;;;;12.30;44.00;;;12.48;46.43;100328.75;5052215;28;20281;-33
2023/12/09 01:49:54;;;;;;;;;;;12.30;44.00;;;12.48;46.77;100331.28;5052373;28;20396;-33
2023/12/09 01:52:22;;;;;;;;;;;12.30;44.00;;;12.48;46.53;100337.19;5052168;28;20393;-31
2023/12/09 01:54:50;;;;;;;;;;;12.30;44.10;;;12.47;46.91;100326.97;5051939;28;19986;-31
2023/12/09 01:57:18;;;;;;;;;;;12.30;44.10;;;12.47;46.23;100331.97;5051971;28;19932;-32
2023/12/09 01:59:46;;;;;;;;;;;12.30;44.10;;;12.40;47.04;100319.41;5051799;28;19924;-30
2023/12/09 02:02:14;;;;;;;;;;;12.30;44.10;;;12.46;46.49;100326.06;5052163;28;19925;-42
2023/12/09 02:04:42;;;;;;;;;;;12.30;44.10;;;12.45;46.38;100329.31;5051699;28;19925;-31
2023/12/09 02:07:11;;;;;;;;;;;12.30;44.10;;;12.45;46.76;100328.41;5051962;28;20301;-33
2023/12/09 02:09:39;;;;;;;;;;;12.30;44.10;;;12.45;46.92;100325.91;5052022;28;20463;-32
2023/12/09 02:12:14;;;;;;;;;;;12.20;44.00;;;12.45;47.22;100323.38;5052247;28;19932;-36
2023/12/09 02:14:45;;;;;;;;;;;12.20;44.10;;;12.47;46.81;100319.41;5051705;28;20365;-33
2023/12/09 02:17:14;;;;;;;;;;;12.20;44.10;;;12.44;46.68;100324.09;5052133;28;20388;-32
2023/12/09 02:19:42;;;;;;;;;;;12.20;44.10;;;12.43;46.82;100317.28;5043903;28;19932;-33
2023/12/09 02:22:11;;;;;;;;;;;12.20;44.10;;;12.43;46.96;100315.66;5052174;28;20024;-33
2023/12/09 02:24:40;;;;;;;;;;;12.20;44.10;;;12.44;46.95;100311.53;5051653;28;19924;-32
2023/12/09 02:27:10;;;;;;;;;;;12.20;44.10;;;12.42;46.48;100307.94;5052177;28;19932;-32
2023/12/09 02:29:42;;;;;;;;;;;12.20;44.20;;;12.41;47.07;100301.13;5051602;28;19924;-33
2023/12/09 02:32:10;;;;;;;;;;;12.20;44.10;;;12.43;46.95;100309.75;5051839;28;19925;-34
2023/12/09 02:34:38;;;;;;;;;;;12.20;44.20;;;12.16;47.40;100256.25;5051260;28;20390;-35
2023/12/09 02:37:06;;;;;;;;;;;12.20;44.20;;;12.41;46.83;100301.13;5051991;28;19979;-31
2023/12/09 02:39:34;;;;;;;;;;;12.20;44.30;;;12.34;47.11;100283.53;5051779;28;19931;-32
2023/12/09 02:42:04;;;;;;;;;;;12.20;44.30;;;12.43;47.14;100302.19;5051680;28;20354;-33
2023/12/09 02:44:33;;;;;;;;;;;12.20;44.30;;;12.43;47.18;100309.75;5051338;28;20346;-33
2023/12/09 02:47:01;;;;;;;;;;;12.20;44.30;;;12.42;46.78;100298.78;5051513;28;19928;-31
2023/12/09 02:49:29;;;;;;;;;;;12.20;44.30;;;12.38;46.75;100285.69;5051485;28;19925;-33
2023/12/09 02:51:57;;;;;;;;;;;12.20;44.30;;;12.45;47.65;100303.28;5051837;28;19925;-33
2023/12/09 02:54:24;;;;;;;;;;;12.20;44.30;;;12.45;46.74;100293.25;5051158;28;19931;-32
2023/12/09 02:56:52;;;;;;;;;;;12.20;44.20;;;12.44;46.99;100296.47;5051714;28;20011;-30
2023/12/09 02:59:21;;;;;;;;;;;12.20;44.20;;;12.44;46.89;100297.38;5051240;28;19975;-33
2023/12/09 03:01:49;;;;;;;;;;;12.20;44.20;;;12.45;46.81;100283.19;5090228;22;19930;-36
2023/12/09 03:04:17;;;;;;;;;;;12.20;44.20;;;12.44;46.74;100276.38;5072464;28;19924;-36
2023/12/09 03:06:45;;;;;;;;;;;12.20;44.20;;;12.45;46.70;100280.69;5072477;28;19929;-36
2023/12/09 03:09:13;;;;;;;;;;;12.30;44.30;;;12.45;47.12;100278.16;5073016;28;20019;-37
2023/12/09 03:11:41;;;;;;;;;;;12.30;44.30;;;12.41;46.80;100268.47;5072522;28;20425;-37
2023/12/09 03:14:09;;;;;;;;;;;12.30;44.30;;;12.46;46.61;100274.91;5072677;28;19928;-37
2023/12/09 03:16:38;;;;;;;;;;;12.30;44.30;;;12.48;47.08;100273.47;5074642;28;20011;-37
2023/12/09 03:19:06;;;;;;;;;;;12.20;44.30;;;12.45;47.12;100269.00;5076203;28;20016;-37
2023/12/09 03:21:34;;;;;;;;;;;12.20;44.30;;;12.42;47.31;100253.56;5075904;28;20206;-37
2023/12/09 03:24:02;;;;;;;;;;;12.30;44.30;;;12.49;46.86;100260.19;5076173;28;20379;-37
2023/12/09 03:26:30;;;;;;;;;;;12.30;44.30;;;12.43;47.49;100249.44;5075841;28;20333;-38
2023/12/09 03:28:58;;;;;;;;;;;12.20;44.30;;;12.46;47.14;100262.34;5076063;28;20313;-37
2023/12/09 03:31:26;;;;;;;;;;;12.30;44.30;;;12.49;46.95;100257.69;5078350;28;19978;-37
2023/12/09 03:33:55;;;;;;;;;;;12.30;44.30;;;12.49;46.70;100257.69;5082861;28;19931;-36
2023/12/09 03:36:23;;;;;;;;;;;12.20;44.30;;;12.49;46.72;100250.16;5076361;28;19924;-38
2023/12/09 03:38:51;;;;;;;;;;;12.20;44.20;;;12.42;46.56;100243.50;5076545;28;19929;-37
2023/12/09 03:41:19;;;;;;;;;;;12.20;44.30;;;12.48;46.77;100245.84;5075854;28;20351;-37
2023/12/09 03:43:51;;;;;;;;;;;12.20;44.20;;;12.47;46.71;100249.06;5068127;28;20334;-37
2023/12/09 03:46:19;;;;;;;;;;;12.30;44.30;;;12.47;46.71;100252.47;5075154;28;20484;-37
2023/12/09 03:48:47;;;;;;;;;;;12.20;44.30;;;12.45;47.08;100240.47;5066876;28;19924;-37
2023/12/09 03:51:16;;;;;;;;;;;12.20;44.30;;;12.47;47.13;100244.94;5074792;28;19928;-37
2023/12/09 03:53:45;;;;;;;;;;;12.20;44.30;;;12.47;46.76;100234.88;5074659;28;20006;-37
2023/12/09 03:56:17;;;;;;;;;;;12.20;44.30;;;12.45;46.42;100231.31;5074909;28;19947;-36
2023/12/09 03:58:44;;;;;;;;;;;12.20;44.30;;;12.44;47.50;100236.16;5074951;28;19924;-37
2023/12/09 04:01:12;;;;;;;;;;;12.20;44.30;;;12.44;46.72;100233.66;5075534;28;19931;-39
2023/12/09 04:03:40;;;;;;;;;;;12.20;44.30;;;12.45;47.43;100243.00;5075383;28;19989;-37
2023/12/09 04:06:09;;;;;;;;;;;12.20;44.30;;;12.42;47.52;100232.56;5075469;28;20368;-37
2023/12/09 04:08:38;;;;;;;;;;;12.20;44.30;;;12.45;46.72;100227.91;5075110;28;19967;-38
2023/12/09 04:11:06;;;;;;;;;;;12.20;44.30;;;12.44;46.26;100226.13;5075345;28;20011;-36
2023/12/09 04:13:34;;;;;;;;;;;12.20;44.30;;;12.43;46.86;100220.19;5074782;28;19924;-37
2023/12/09 04:16:02;;;;;;;;;;;12.20;44.30;;;12.45;46.70;100222.88;5075406;28;19925;-37
2023/12/09 04:18:30;;;;;;;;;;;12.20;44.30;;;12.44;47.32;100221.09;5074825;28;19929;-37
2023/12/09 04:20:58;;;;;;;;;;;12.20;44.40;;;12.43;46.94;100225.22;5075080;28;19928;-37
2023/12/09 04:23:25;;;;;;;;;;;12.20;44.40;;;12.43;47.20;100224.31;5074719;28;19970;-37
2023/12/09 04:25:55;;;;;;;;;;;12.20;44.40;;;12.42;47.08;100222.50;5074521;28;20437;-37
2023/12/09 04:28:22;;;;;;;;;;;12.20;44.40;;;12.43;47.57;100219.28;5074171;28;19924;-37
2023/12/09 04:30:50;;;;;;;;;;;12.20;44.40;;;12.45;47.57;100217.84;5077475;28;20023;-37
2023/12/09 04:33:18;;;;;;;;;;;12.20;44.40;;;12.43;46.90;100215.16;5074287;28;20296;-49
2023/12/09 04:35:46;;;;;;;;;;;12.20;44.40;;;12.43;46.96;100219.28;5073885;28;19924;-38
2023/12/09 04:38:14;;;;;;;;;;;12.20;44.30;;;12.43;47.35;100219.28;5065965;28;20372;-38
2023/12/09 04:40:43;;;;;;;;;;;12.20;44.30;;;12.41;46.58;100218.19;5074335;28;20088;-37
2023/12/09 04:43:12;;;;;;;;;;;12.20;44.30;;;12.40;47.74;100221.44;5075079;28;19925;-38
2023/12/09 04:45:40;;;;;;;;;;;12.20;44.30;;;12.40;47.52;100224.84;5074942;28;19928;-36
2023/12/09 04:48:08;;;;;;;;;;;12.20;44.30;;;12.43;46.55;100221.81;5078866;28;20392;-36
2023/12/09 04:50:36;;;;;;;;;;;12.20;44.30;;;12.45;47.40;100227.91;5079314;28;19924;-37
2023/12/09 04:53:04;;;;;;;;;;;12.20;44.30;;;12.46;47.07;100224.66;5077323;28;19959;-37
2023/12/09 04:55:32;;;;;;;;;;;12.20;44.30;;;12.45;46.90;100227.91;5074019;28;20116;-37
2023/12/09 04:58:00;;;;;;;;;;;12.20;44.30;;;12.44;46.97;100226.13;5073996;28;20015;-37
2023/12/09 05:00:29;;;;;;;;;;;12.20;44.30;;;12.44;47.15;100219.47;5073610;28;20259;-37
2023/12/09 05:02:57;;;;;;;;;;;12.20;44.30;;;12.46;46.49;100222.13;5073860;28;19931;-37
2023/12/09 05:05:25;;;;;;;;;;;12.20;44.30;;;12.44;46.85;100214.44;5073191;28;20405;-37
2023/12/09 05:07:53;;;;;;;;;;;12.20;44.30;;;12.42;46.96;100222.50;5073238;28;20019;-37
2023/12/09 05:10:21;;;;;;;;;;;12.20;44.30;;;12.41;46.70;100213.19;5073307;28;19925;-37
2023/12/09 05:12:49;;;;;;;;;;;12.20;44.30;;;12.46;47.54;100224.66;5073214;28;20354;-37
2023/12/09 05:15:17;;;;;;;;;;;12.20;44.30;;;12.44;46.84;100221.09;5073091;28;19988;-37
2023/12/09 05:17:47;;;;;;;;;;;12.20;44.30;;;12.44;46.60;100211.03;5073018;28;20409;-36
2023/12/09 05:20:15;;;;;;;;;;;12.20;44.30;;;12.42;47.24;100203.31;5066025;28;19940;-36
2023/12/09 05:22:44;;;;;;;;;;;12.20;44.30;;;12.43;47.18;100199.19;5064277;28;20364;-36
2023/12/09 05:25:13;;;;;;;;;;;12.20;44.30;;;12.44;47.49;100206.00;5066218;28;20362;-36
2023/12/09 05:27:41;;;;;;;;;;;12.20;44.30;;;12.47;46.89;100198.81;5071606;28;19928;-36
2023/12/09 05:30:10;;;;;;;;;;;12.20;44.30;;;12.46;46.60;100199.53;5073121;28;20353;-37
2023/12/09 05:32:38;;;;;;;;;;;12.20;44.30;;;12.45;47.22;100190.22;5056126;28;19924;-36
2023/12/09 05:35:08;;;;;;;;;;;12.20;44.30;;;12.46;47.14;100184.44;5066983;28;19925;-37
2023/12/09 05:37:36;;;;;;;;;;;12.20;44.30;;;12.46;47.11;100184.44;5070282;28;19924;-37
2023/12/09 05:40:04;;;;;;;;;;;12.20;44.40;;;12.46;47.12;100184.44;5071998;28;19931;-37
2023/12/09 05:42:32;;;;;;;;;;;12.20;44.30;;;12.46;46.84;100179.41;5072573;28;19931;-37
2023/12/09 05:45:01;;;;;;;;;;;12.20;44.30;;;12.41;47.57;100170.47;5072531;28;19974;-37
2023/12/09 05:47:28;;;;;;;;;;;12.20;44.40;;;12.44;46.67;100179.28;5072491;28;19932;-37
2023/12/09 05:49:56;;;;;;;;;;;12.20;44.40;;;12.43;46.81;100185.00;5072273;28;19974;-36
2023/12/09 05:52:26;;;;;;;;;;;12.20;44.30;;;12.43;47.18;100174.06;5072295;28;20380;-37
2023/12/09 05:54:54;;;;;;;;;;;12.20;44.40;;;12.42;47.08;100182.31;5064229;28;19936;-36
2023/12/09 05:57:22;;;;;;;;;;;12.20;44.40;;;12.43;47.25;100179.97;5064044;28;19925;-36
2023/12/09 05:59:50;;;;;;;;;;;12.20;44.30;;;12.42;46.78;100183.22;5072100;28;19940;-36
2023/12/09 06:02:18;;;;;;;;;;;12.20;44.40;;;12.40;47.16;100184.63;5072208;28;19924;-37
2023/12/09 06:04:46;;;;;;;;;;;12.20;44.40;;;12.41;46.65;100185.53;5072484;28;20355;-37
2023/12/09 06:07:14;;;;;;;;;;;12.20;44.40;;;12.43;46.59;100184.13;5072274;28;19925;-37
2023/12/09 06:09:43;;;;;;;;;;;12.20;44.40;;;12.42;47.44;100178.19;5071977;28;19931;-37
2023/12/09 06:12:11;;;;;;;;;;;12.20;44.40;;;12.39;46.97;100174.44;5072198;28;19928;-37
2023/12/09 06:14:39;;;;;;;;;;;12.20;44.40;;;12.40;47.26;100173.69;5071806;28;19925;-37
2023/12/09 06:17:06;;;;;;;;;;;12.20;44.40;;;12.41;47.51;100175.50;5072077;28;20027;-37
2023/12/09 06:19:34;;;;;;;;;;;12.20;44.40;;;12.40;47.25;100181.22;5071963;28;19925;-37
2023/12/09 06:22:02;;;;;;;;;;;12.20;44.40;;;12.43;46.93;100176.56;5072371;28;19925;-37
2023/12/09 06:24:30;;;;;;;;;;;12.20;44.40;;;12.35;46.69;100159.72;5072379;28;20307;-37
2023/12/09 06:27:00;;;;;;;;;;;12.20;44.40;;;12.43;46.67;100159.88;5073223;28;19925;-37
2023/12/09 06:29:28;;;;;;;;;;;12.20;44.40;;;12.35;46.69;100152.19;5072870;28;19928;-37
2023/12/09 06:31:56;;;;;;;;;;;12.20;44.40;;;12.40;47.06;100158.63;5064128;28;19924;-37
2023/12/09 06:34:24;;;;;;;;;;;12.20;44.40;;;12.39;47.00;100152.69;5072047;28;20294;-37
2023/12/09 06:36:52;;;;;;;;;;;12.20;44.40;;;12.39;46.89;100156.84;5069273;28;19925;-36
2023/12/09 06:39:20;;;;;;;;;;;12.20;44.40;;;12.42;46.71;100162.22;5067784;28;19931;-37
2023/12/09 06:41:48;;;;;;;;;;;12.20;44.40;;;12.41;46.87;100150.38;5072031;28;19928;-37
2023/12/09 06:44:17;;;;;;;;;;;12.20;44.40;;;12.41;47.46;100152.88;5072239;28;19938;-36
2023/12/09 06:46:45;;;;;;;;;;;12.20;44.50;;;12.40;46.99;100151.09;5071935;28;20379;-37
2023/12/09 06:49:13;;;;;;;;;;;12.20;44.50;;;12.43;47.70;100153.97;5072880;28;19929;-37
2023/12/09 06:51:42;;;;;;;;;;;12.20;44.40;;;12.43;47.10;100153.97;5076548;28;19924;-37
2023/12/09 06:54:10;;;;;;;;;;;12.20;44.50;;;12.40;47.07;100148.56;5076641;28;20286;-36
2023/12/09 06:56:39;;;;;;;;;;;12.20;44.40;;;12.41;47.48;100145.34;5076765;28;19925;-37
2023/12/09 06:59:07;;;;;;;;;;;12.20;44.40;;;12.40;46.90;100154.50;5076533;28;19928;-37
2023/12/09 07:01:37;;;;;;;;;;;12.20;44.50;;;12.38;46.83;100139.97;5075924;28;20003;-37
2023/12/09 07:04:05;;;;;;;;;;;12.20;44.40;;;12.42;47.55;100148.03;5076203;28;19978;-37
2023/12/09 07:06:33;;;;;;;;;;;12.20;44.50;;;12.40;47.29;100143.53;5077780;28;19929;-37
2023/12/09 07:09:01;;;;;;;;;;;12.20;44.50;;;12.44;47.02;100155.75;5076307;28;19930;-37
2023/12/09 07:11:29;;;;;;;;;;;12.20;44.40;;;12.45;46.84;100152.53;5075592;28;19925;-37
2023/12/09 07:13:57;;;;;;;;;;;12.20;44.40;;;12.43;46.74;100148.94;5082894;28;20020;-37
2023/12/09 07:16:24;;;;;;;;;;;12.20;44.40;;;12.41;47.19;100150.38;5093032;28;19924;-37
2023/12/09 07:18:58;;;;;;;;;;;12.20;44.40;;;12.42;47.31;100152.16;5083062;28;20024;-37
2023/12/09 07:21:29;;;;;;;;;;;12.20;44.40;;;12.39;47.19;100141.78;5074854;28;20140;-37
2023/12/09 07:23:57;;;;;;;;;;;12.20;44.30;;;12.41;47.34;100145.34;5067131;28;20268;-37
2023/12/09 07:26:25;;;;;;;;;;;12.20;44.40;;;12.43;47.09;100147.31;5075353;28;20375;-37
2023/12/09 07:28:54;;;;;;;;;;;12.20;44.40;;;12.43;47.47;100138.88;5075008;28;19924;-37
2023/12/09 07:31:22;;;;;;;;;;;12.20;44.50;;;12.41;47.06;100140.31;5075854;28;20336;-37
2023/12/09 07:33:50;;;;;;;;;;;12.20;44.40;;;12.41;46.73;100145.34;5074890;28;19946;-36
2023/12/09 07:36:20;;;;;;;;;;;12.20;45.10;;;12.40;46.88;100133.50;5074810;28;20388;-35
2023/12/09 07:38:47;;;;;;;;;;;12.20;44.50;;;12.41;46.84;100135.28;5074603;28;20023;-35
2023/12/09 07:41:15;;;;;;;;;;;12.20;44.50;;;12.38;46.82;100134.97;5074858;28;19924;-35
2023/12/09 07:43:43;;;;;;;;;;;12.20;44.50;;;12.40;46.77;100130.97;5074485;28;19931;-34
2023/12/09 07:46:11;;;;;;;;;;;12.20;44.50;;;12.40;47.06;100130.97;5074816;28;20406;-38
2023/12/09 07:48:39;;;;;;;;;;;12.20;44.50;;;12.38;47.26;100132.44;5074674;28;19924;-35
2023/12/09 07:51:07;;;;;;;;;;;12.20;44.50;;;12.38;46.89;100120.78;5074248;28;19974;-35
2023/12/09 07:53:37;;;;;;;;;;;12.20;44.50;;;12.39;47.48;100116.66;5074924;28;19925;-35
2023/12/09 07:56:05;;;;;;;;;;;12.20;44.60;;;12.38;47.25;100114.88;5074577;28;19928;-35
2023/12/09 07:58:33;;;;;;;;;;;12.20;44.60;;;12.36;47.07;100107.16;5074461;28;19924;-38
2023/12/09 08:01:01;;;;;;;;;;;12.20;44.60;;;12.38;47.51;100109.84;5066138;28;20026;-38
2023/12/09 08:03:32;;;;;;;;;;;12.20;44.60;;;12.35;47.57;100109.47;5073953;28;19990;-35
2023/12/09 08:06:02;;;;;;;;;;;12.20;44.60;;;12.39;47.18;100109.13;5066289;28;20397;-37
2023/12/09 08:08:30;;;;;;;;;;;12.20;44.70;;;12.39;47.38;100096.56;5074648;28;20345;-36
2023/12/09 08:11:01;;;;;;;;;;;12.20;44.60;;;12.38;46.98;100094.75;5074411;28;19930;-36
2023/12/09 08:13:29;;;;;;;;;;;12.20;44.60;;;12.39;47.23;100091.53;5075361;28;19985;-36
2023/12/09 08:15:56;;;;;;;;;;;12.20;44.60;;;12.39;47.16;100078.97;5087233;28;19948;-36
2023/12/09 08:18:24;;;;;;;;;;;12.20;44.60;;;12.42;47.51;100081.81;5088174;28;19929;-36
2023/12/09 08:20:54;;;;;;;;;;;12.20;44.60;;;12.41;47.77;100065.84;5087523;28;19986;-36
2023/12/09 08:23:22;;;;;;;;;;;12.20;44.60;;;12.40;47.49;100068.19;5084833;28;19931;-36
2023/12/09 08:25:50;;;;;;;;;;;12.20;44.60;;;12.39;46.98;100071.44;5076938;28;19924;-36
2023/12/09 08:28:19;;;;;;;;;;;12.20;44.60;;;12.38;47.95;100064.63;5075046;28;19928;-36
2023/12/09 08:30:47;;;;;;;;;;;12.20;44.70;;;12.39;46.86;100062.25;5073812;28;20288;-36
2023/12/09 08:33:15;;;;;;;;;;;12.20;44.70;;;12.39;47.50;100061.41;5074181;28;19955;-36
2023/12/09 08:35:43;;;;;;;;;;;12.20;44.70;;;12.40;47.40;100070.69;5073681;28;19978;-36
2023/12/09 08:38:11;;;;;;;;;;;12.20;44.70;;;12.39;47.75;100058.88;5074089;28;20015;-36
2023/12/09 08:40:39;;;;;;;;;;;12.20;44.70;;;12.41;46.98;100049.88;5073506;28;20062;-37
2023/12/09 08:43:07;;;;;;;;;;;12.20;44.70;;;12.40;48.02;100043.06;5074016;28;20035;-37
2023/12/09 08:45:36;;;;;;;;;;;12.20;44.70;;;12.41;47.46;100044.84;5073999;28;20447;-36
2023/12/09 08:48:04;;;;;;;;;;;12.20;44.80;;;12.42;48.12;100031.56;5073914;28;20587;-36
2023/12/09 08:50:32;;;;;;;;;;;12.20;44.70;;;12.43;47.11;100033.38;5073873;28;19955;-35
2023/12/09 08:53:02;;;;;;;;;;;12.20;44.80;;;12.41;46.89;100024.75;5073770;28;20417;-36
2023/12/09 08:55:30;;;;;;;;;;;12.20;44.70;;;12.43;47.12;100029.25;5073710;28;19964;-36
2023/12/09 08:57:58;;;;;;;;;;;12.20;44.70;;;12.40;47.63;100022.97;5076860;28;19980;-37
2023/12/09 09:00:27;;;;;;;;;;;12.20;44.70;;;12.42;47.37;100022.41;5080359;28;19931;-37
2023/12/09 09:02:56;;;;;;;;;;;12.20;44.70;;;12.43;47.55;100025.84;5102120;22;19978;-36
2023/12/09 09:05:24;;;;;;;;;;;12.20;44.70;;;12.44;47.33;100026.00;5095558;28;20441;-37
2023/12/09 09:07:52;;;;;;;;;;;12.20;44.70;;;12.44;47.33;100035.16;5107515;28;20472;-35
2023/12/09 09:10:20;;;;;;;;;;;12.20;44.70;;;12.44;47.76;100035.16;5085471;28;20458;-36
2023/12/09 09:12:48;;;;;;;;;;;12.20;44.80;;;12.45;47.83;100029.41;5089634;28;19928;-36
2023/12/09 09:15:16;;;;;;;;;;;12.20;44.70;;;12.44;47.72;100020.09;5086604;28;19934;-37
2023/12/09 09:17:44;;;;;;;;;;;12.20;44.70;;;12.45;47.20;100022.78;5077069;28;20027;-37
2023/12/09 09:20:14;;;;;;;;;;;12.20;44.70;;;12.44;47.70;100015.06;5080546;28;19925;-36
2023/12/09 09:22:42;;;;;;;;;;;12.20;44.70;;;12.45;47.47;100021.88;5090531;28;19924;-36
2023/12/09 09:25:15;;;;;;;;;;;12.20;44.80;;;12.45;47.83;100016.84;5094333;28;19925;-35
2023/12/09 09:27:42;;;;;;;;;;;12.20;44.80;;;12.45;47.34;100012.72;5090669;28;19977;-37
2023/12/09 09:30:13;;;;;;;;;;;12.20;44.80;;;12.44;47.71;100010.03;5080704;28;20349;-36
2023/12/09 09:32:41;;;;;;;;;;;12.30;44.80;;;12.43;47.55;100008.25;5089904;28;19977;-37
2023/12/09 09:35:09;;;;;;;;;;;12.20;44.80;;;12.44;47.65;100002.50;5080302;28;20434;-35
2023/12/09 09:37:38;;;;;;;;;;;12.30;44.90;;;12.46;48.05;99999.41;5081210;28;19924;-36
2023/12/09 09:40:07;;;;;;;;;;;12.30;44.80;;;12.45;46.88;99991.72;5073342;28;19947;-36
2023/12/09 09:42:38;;;;;;;;;;;12.30;44.90;;;12.47;47.55;99992.78;5081591;28;19931;-34
2023/12/09 09:45:10;;;;;;;;;;;12.30;44.90;;;12.46;47.97;99984.34;5068378;28;19938;-36
2023/12/09 09:47:39;;;;;;;;;;;12.30;44.90;;;12.47;47.28;99975.19;5084402;28;19928;-35
2023/12/09 09:50:08;;;;;;;;;;;12.30;45.00;;;12.48;47.16;99962.81;5077558;28;19924;-36
2023/12/09 09:52:37;;;;;;;;;;;12.30;44.90;;;12.51;47.46;99957.22;5092998;28;19984;-37
2023/12/09 09:55:07;;;;;;;;;;;12.30;45.00;;;12.52;48.31;99956.47;5092881;28;19924;-36
2023/12/09 09:57:35;;;;;;;;;;;12.30;45.00;;;12.52;47.66;99948.94;5077681;28;20288;-36
2023/12/09 10:00:12;;;;;;;;;;;12.30;45.00;;;12.53;47.41;99943.19;5089558;28;19947;-36
2023/12/09 10:02:42;;;;;;;;;;;12.30;45.00;;;12.54;47.98;99942.47;5083535;28;20027;-33
2023/12/09 10:05:10;;;;;;;;;;;12.30;45.00;;;12.55;47.10;99928.31;5068919;28;19932;-36
2023/12/09 10:07:38;;;;;;;;;;;12.30;45.00;;;12.53;47.75;99915.56;5084873;28;19931;-36
2023/12/09 10:10:09;;;;;;;;;;;12.30;45.00;;;12.56;47.71;99910.00;5064327;28;20399;-36
2023/12/09 10:12:37;;;;;;;;;;;12.40;45.20;;;12.55;47.92;99904.06;5079685;28;20383;-33
2023/12/09 10:15:06;;;;;;;;;;;12.30;45.10;;;12.56;48.31;99903.34;5080560;28;20256;-31
2023/12/09 10:17:34;;;;;;;;;;;12.30;45.20;;;12.55;47.52;99896.53;5087936;28;19960;-36
2023/12/09 10:20:05;;;;;;;;;;;12.40;45.20;;;12.57;47.57;99896.72;5083479;28;20418;-36
2023/12/09 10:22:33;;;;;;;;;;;12.30;45.20;;;12.52;48.33;99878.59;5083546;28;20294;-31
2023/12/09 10:25:01;;;;;;;;;;;12.40;45.30;;;12.55;47.63;99886.47;5080314;28;19924;-33
2023/12/09 10:27:30;;;;;;;;;;;12.30;45.30;;;12.54;47.72;99879.66;5086736;28;19928;-31
2023/12/09 10:29:58;;;;;;;;;;;12.30;45.30;;;12.48;48.47;99876.47;5081194;28;19924;-31
2023/12/09 10:32:26;;;;;;;;;;;12.30;45.30;;;12.52;48.13;99877.72;5078082;28;19924;-33
2023/12/09 10:34:55;;;;;;;;;;;12.30;45.40;;;12.52;48.38;99868.53;5073105;28;19925;-33
2023/12/09 10:37:23;;;;;;;;;;;12.30;45.40;;;12.52;48.04;99858.50;5071815;28;19978;-31
2023/12/09 10:39:51;;;;;;;;;;;12.30;45.40;;;12.52;48.25;99845.94;5079839;28;19931;-31
2023/12/09 10:42:22;;;;;;;;;;;12.30;45.50;;;12.52;47.73;99838.38;5076927;28;19924;-31
2023/12/09 10:44:51;;;;;;;;;;;12.30;45.40;;;12.51;48.46;99826.59;5074860;28;20407;-30
2023/12/09 10:47:19;;;;;;;;;;;12.30;45.40;;;12.53;47.63;99830.13;5083514;28;19925;-31
2023/12/09 10:49:47;;;;;;;;;;;12.30;45.40;;;12.54;48.48;99820.97;5074750;28;19925;-33
2023/12/09 10:52:15;;;;;;;;;;;12.30;45.40;;;12.54;48.55;99816.84;5076679;28;19924;-33
2023/12/09 10:54:43;;;;;;;;;;;12.30;45.40;;;12.54;47.58;99796.75;5083949;28;20280;-37
2023/12/09 10:57:12;;;;;;;;;;;12.30;45.40;;;12.55;48.11;99798.53;5084827;28;19931;-32
2023/12/09 10:59:40;;;;;;;;;;;12.30;46.00;;;12.55;48.16;99795.13;5076309;28;20412;-33
2023/12/09 11:02:09;;;;;;;;;;;12.30;45.40;;;12.55;48.41;99782.56;5082116;28;19924;-33
2023/12/09 11:04:37;;;;;;;;;;;12.30;45.40;;;12.57;47.42;99782.00;5072034;28;19968;-35
2023/12/09 11:07:08;;;;;;;;;;;12.30;45.40;;;12.56;47.82;99775.19;5083344;28;19982;-32
2023/12/09 11:09:36;;;;;;;;;;;12.30;45.40;;;12.53;48.52;99769.81;5083782;28;20053;-32
2023/12/09 11:12:05;;;;;;;;;;;12.30;45.40;;;12.52;48.55;99752.97;5083799;28;19943;-33
2023/12/09 11:14:34;;;;;;;;;;;12.30;45.50;;;12.50;47.95;99749.41;5076901;28;20020;-31